Pagina principale
METAR-TAF:

METAR-TAF

Aeroporti :

Emmen, Svizzera

latitudine: 47-05-32N, longitudine: 8-18-16E, altezza: 426 m

Osservazione

Il bollettino è stato emesso 29 minuti fa, alle 23:20 UTC
Vento 5 kt da sud, variando fra est/sud-est e ovest/sud-ovest
Temperature 9°C
Umidità 81%
Pressione 1010 hPa
Visibilità 10 km o più
Nuvoloso ad un'altezza di 5800 ft
Nuvoloso ad un'altezza di 7200 ft

METAR: LSME 152320Z AUTO 17005KT 120V240 9999NDV BKN058 BKN072 09/06 Q1010 RMK

Ora: 01:49 (23:49 UTC)


TAF: mancante

Osservazioni e previsioni meteorologiche di più di 4000 aeroporti (messaggi METAR e TAF).

Le stazioni disponibili sono rappresentate dai dischi gialli e rossi sulla carta.

Puntare il mouse per vedere il nome della stazione.

Clicca sopra per visualizzare le osservazioni e previsioni meteorologiche.

Per cambiare la mappa : fare clic sui pulsanti verdi con una croce nera per ingrandire, il pulsante verde con un trattino per diminuire, o sulla freccia verde per le mappe adiacenti.


METAR-TAF: